createdAt,value
2019-06-20T00:01:41.774Z,67.30
2019-06-20T00:04:11.879Z,67.60
2019-06-20T00:06:42.228Z,67.60
2019-06-20T00:09:12.402Z,67.70
2019-06-20T00:11:44.967Z,67.80
2019-06-20T00:14:17.594Z,68.00
2019-06-20T00:16:47.980Z,67.90
2019-06-20T00:19:18.066Z,68.00
2019-06-20T00:21:48.208Z,68.20
2019-06-20T00:24:18.313Z,67.90
2019-06-20T00:26:51.649Z,68.10
2019-06-20T00:29:29.366Z,68.10
2019-06-20T00:31:59.576Z,68.10
2019-06-20T00:34:29.687Z,68.00
2019-06-20T00:37:00.058Z,68.20
2019-06-20T00:39:31.862Z,68.30
2019-06-20T00:42:02.026Z,68.20
2019-06-20T00:44:32.151Z,68.30
2019-06-20T00:47:02.281Z,68.40
2019-06-20T00:49:32.389Z,68.30
2019-06-20T00:52:04.082Z,68.50
2019-06-20T00:54:34.362Z,68.60
2019-06-20T00:57:08.655Z,68.90
2019-06-20T00:59:45.128Z,68.60
2019-06-20T01:02:15.355Z,68.70
2019-06-20T01:04:45.849Z,68.70
2019-06-20T01:07:17.514Z,68.90
2019-06-20T01:09:47.662Z,68.70
2019-06-20T01:12:17.909Z,68.90
2019-06-20T01:14:48.189Z,68.70
2019-06-20T01:17:19.376Z,69.00
2019-06-20T01:19:49.581Z,69.10
2019-06-20T01:22:19.739Z,69.00
2019-06-20T01:24:49.916Z,69.00
2019-06-20T01:27:20.169Z,68.90
2019-06-20T01:29:50.450Z,68.90
2019-06-20T01:32:20.862Z,68.90
2019-06-20T01:34:51.137Z,68.90
2019-06-20T01:37:21.363Z,69.00
2019-06-20T01:39:51.526Z,69.00
2019-06-20T01:42:23.296Z,69.10
2019-06-20T01:44:54.574Z,69.30
2019-06-20T01:47:27.318Z,69.20
2019-06-20T01:49:57.468Z,69.30
2019-06-20T01:52:27.588Z,69.20
2019-06-20T01:54:57.952Z,69.30
2019-06-20T01:57:28.189Z,69.50
2019-06-20T01:59:58.348Z,69.30
2019-06-20T02:02:28.518Z,69.50
2019-06-20T02:04:58.788Z,69.60
2019-06-20T02:07:30.741Z,69.60
2019-06-20T02:10:00.994Z,69.80
2019-06-20T02:12:31.293Z,69.60
2019-06-20T02:15:01.514Z,69.60
2019-06-20T02:17:32.702Z,69.70
2019-06-20T02:20:02.972Z,69.90
2019-06-20T02:22:34.118Z,69.90
2019-06-20T02:25:04.657Z,70.00
2019-06-20T02:27:35.077Z,70.10
2019-06-20T02:30:05.789Z,70.00
2019-06-20T02:32:36.069Z,70.00
2019-06-20T02:35:06.258Z,69.90
2019-06-20T02:37:36.444Z,70.00
2019-06-20T02:40:06.762Z,70.10
2019-06-20T02:42:37.151Z,70.10
2019-06-20T02:45:07.526Z,70.30
2019-06-20T02:47:37.754Z,70.10
2019-06-20T02:50:08.063Z,70.30
2019-06-20T02:52:38.274Z,70.20
2019-06-20T02:55:09.505Z,70.30
2019-06-20T02:57:39.832Z,70.50
2019-06-20T03:00:12.849Z,70.80
2019-06-20T03:02:43.062Z,70.50
2019-06-20T03:05:22.362Z,70.90
2019-06-20T03:07:52.531Z,70.80
2019-06-20T03:10:22.725Z,70.80
2019-06-20T03:12:54.413Z,70.70
2019-06-20T03:15:24.490Z,70.90
2019-06-20T03:17:54.699Z,70.80
2019-06-20T03:20:29.773Z,70.80
2019-06-20T03:22:59.991Z,70.80
2019-06-20T03:25:30.207Z,70.70
2019-06-20T03:28:00.441Z,70.80
2019-06-20T03:30:30.602Z,70.80
2019-06-20T03:33:00.798Z,71.00
2019-06-20T03:35:30.990Z,70.90
2019-06-20T03:38:04.123Z,71.00
2019-06-20T03:40:36.477Z,71.10
2019-06-20T03:43:06.704Z,71.00
2019-06-20T03:45:38.525Z,70.90
2019-06-20T03:48:08.805Z,71.00
2019-06-20T03:50:39.015Z,71.10
2019-06-20T03:53:09.245Z,71.10
2019-06-20T03:55:39.343Z,71.20
2019-06-20T03:58:11.922Z,71.20
2019-06-20T04:00:43.295Z,71.50
2019-06-20T04:03:13.695Z,71.40
2019-06-20T04:05:43.922Z,71.30
2019-06-20T04:08:14.186Z,71.50
2019-06-20T04:10:46.472Z,71.60
2019-06-20T04:13:16.725Z,71.80
2019-06-20T04:15:48.630Z,71.60
2019-06-20T04:18:18.882Z,71.40
2019-06-20T04:20:49.008Z,71.60
2019-06-20T04:23:23.029Z,71.70
2019-06-20T04:25:53.252Z,71.60
2019-06-20T04:28:25.183Z,71.70
2019-06-20T04:30:55.325Z,71.80
2019-06-20T04:33:25.508Z,71.70
2019-06-20T04:35:55.779Z,71.70
2019-06-20T04:38:28.341Z,71.50
2019-06-20T04:40:58.446Z,71.50
2019-06-20T04:43:28.726Z,71.40
2019-06-20T04:46:17.938Z,71.60
2019-06-20T04:48:48.110Z,71.60
2019-06-20T04:51:18.248Z,71.40
2019-06-20T04:53:49.950Z,71.40
2019-06-20T04:56:20.222Z,71.70
2019-06-20T04:58:50.354Z,71.60
2019-06-20T05:01:20.601Z,71.60
2019-06-20T05:03:50.835Z,71.60
2019-06-20T05:06:21.186Z,71.60
2019-06-20T05:08:55.511Z,71.60
2019-06-20T05:11:26.841Z,71.40
2019-06-20T05:13:59.297Z,71.70
2019-06-20T05:16:29.577Z,71.50
2019-06-20T05:18:59.887Z,71.40
2019-06-20T05:21:30.016Z,71.60
2019-06-20T05:24:00.163Z,71.50
2019-06-20T05:26:30.332Z,71.50
2019-06-20T05:29:00.495Z,71.70
2019-06-20T05:31:30.829Z,71.70
2019-06-20T05:34:01.070Z,72.30
2019-06-20T05:36:33.617Z,72.00
2019-06-20T05:39:04.816Z,73.00
2019-06-20T05:41:34.900Z,74.40
2019-06-20T05:44:05.145Z,73.60
2019-06-20T05:46:35.677Z,71.50
2019-06-20T05:49:05.955Z,70.40
2019-06-20T05:51:39.832Z,70.60
2019-06-20T05:54:10.182Z,70.40
2019-06-20T05:56:40.465Z,70.70
2019-06-20T05:59:10.695Z,70.80
2019-06-20T06:01:40.852Z,70.90
2019-06-20T06:04:13.297Z,70.80
2019-06-20T06:06:43.495Z,70.70
2019-06-20T06:09:15.504Z,70.70
2019-06-20T06:11:47.872Z,70.70
2019-06-20T06:14:18.059Z,70.80
2019-06-20T06:16:48.166Z,70.70
2019-06-20T06:19:18.299Z,70.70
2019-06-20T06:21:48.579Z,70.80
2019-06-20T06:24:18.798Z,71.00
2019-06-20T06:26:48.930Z,70.60
2019-06-20T06:29:19.293Z,70.70
2019-06-20T06:31:49.558Z,70.70
2019-06-20T06:34:21.983Z,70.30
2019-06-20T06:36:52.897Z,70.30
2019-06-20T06:39:23.037Z,70.40
2019-06-20T06:41:53.243Z,70.40
2019-06-20T06:44:23.454Z,70.50
2019-06-20T06:46:59.262Z,70.50
2019-06-20T06:49:25.563Z,70.70
2019-06-20T06:51:55.857Z,70.60
2019-06-20T06:54:26.180Z,70.80
2019-06-20T06:56:56.458Z,71.00
2019-06-20T06:59:26.777Z,71.00
2019-06-20T07:01:58.642Z,70.90
2019-06-20T07:04:28.916Z,71.00
2019-06-20T07:06:59.115Z,70.70
2019-06-20T07:09:29.517Z,70.40
2019-06-20T07:12:00.942Z,70.40
2019-06-20T07:14:31.378Z,70.10
2019-06-20T07:17:01.588Z,69.80
2019-06-20T07:19:31.780Z,70.00
2019-06-20T07:22:02.096Z,69.90
2019-06-20T07:24:32.319Z,69.60
2019-06-20T07:27:02.503Z,69.90
2019-06-20T07:29:36.015Z,69.80
2019-06-20T07:32:06.131Z,69.90
2019-06-20T07:34:36.692Z,69.80
2019-06-20T07:37:06.826Z,69.80
2019-06-20T07:39:41.736Z,69.60
2019-06-20T07:42:08.874Z,69.70
2019-06-20T07:44:40.434Z,69.90
2019-06-20T07:47:17.432Z,70.00
2019-06-20T07:49:42.869Z,71.20
2019-06-20T07:52:13.070Z,70.30
2019-06-20T07:54:43.323Z,70.60
2019-06-20T07:57:14.527Z,69.40
2019-06-20T07:59:44.669Z,68.70
2019-06-20T08:02:14.860Z,68.10
2019-06-20T08:04:45.017Z,68.20
2019-06-20T08:07:17.266Z,68.60
2019-06-20T08:09:47.616Z,69.00
2019-06-20T08:12:17.729Z,69.50
2019-06-20T08:14:48.034Z,69.50
2019-06-20T08:17:34.364Z,69.60
2019-06-20T08:19:50.123Z,69.60
2019-06-20T08:22:20.330Z,69.30
2019-06-20T08:24:50.555Z,69.40
2019-06-20T08:27:39.680Z,69.40
2019-06-20T08:30:10.090Z,68.90
2019-06-20T08:32:40.368Z,68.70
2019-06-20T08:35:10.705Z,68.30
2019-06-20T08:37:42.083Z,67.70
2019-06-20T08:40:12.504Z,67.00
2019-06-20T08:42:42.701Z,67.20
2019-06-20T08:45:13.457Z,66.90
2019-06-20T08:47:43.578Z,66.90
2019-06-20T08:50:14.973Z,66.90
2019-06-20T08:52:45.271Z,66.70
2019-06-20T08:55:16.650Z,67.00
2019-06-20T08:57:46.909Z,67.60
2019-06-20T09:00:17.549Z,67.30
2019-06-20T09:02:47.673Z,66.90
2019-06-20T09:05:18.065Z,66.70
2019-06-20T09:07:49.238Z,66.60
2019-06-20T09:10:20.033Z,67.30
2019-06-20T09:12:57.012Z,66.90
2019-06-20T09:15:27.315Z,67.10
2019-06-20T09:17:58.490Z,67.10
2019-06-20T09:20:30.082Z,67.30
2019-06-20T09:23:01.114Z,67.30
2019-06-20T09:25:32.686Z,67.40
2019-06-20T09:28:02.939Z,67.70
2019-06-20T09:30:33.240Z,68.90
2019-06-20T09:33:04.211Z,68.20
2019-06-20T09:35:34.875Z,66.20
2019-06-20T09:38:05.238Z,67.00
2019-06-20T09:40:35.356Z,66.80
2019-06-20T09:43:09.065Z,66.10
2019-06-20T09:45:39.181Z,65.90
2019-06-20T09:48:09.306Z,65.00
2019-06-20T09:50:39.518Z,65.00
2019-06-20T09:53:09.713Z,65.00
2019-06-20T09:55:41.543Z,64.60
2019-06-20T09:58:11.666Z,64.30
2019-06-20T10:00:41.850Z,64.40
2019-06-20T10:03:11.991Z,64.80
2019-06-20T10:05:42.183Z,65.50
2019-06-20T10:08:13.314Z,65.50
2019-06-20T10:10:43.609Z,64.10
2019-06-20T10:13:13.801Z,64.20
2019-06-20T10:15:44.924Z,64.70
2019-06-20T10:18:15.968Z,64.80
2019-06-20T10:20:47.260Z,65.20
2019-06-20T10:23:17.536Z,65.20
2019-06-20T10:25:49.309Z,64.70
2019-06-20T10:28:20.134Z,64.30
2019-06-20T10:30:53.490Z,63.30
2019-06-20T10:33:24.749Z,63.00
2019-06-20T10:35:57.109Z,63.30
2019-06-20T10:38:27.542Z,63.50
2019-06-20T10:40:59.869Z,63.80
2019-06-20T10:43:32.602Z,64.10
2019-06-20T10:46:02.915Z,63.70
2019-06-20T10:48:33.122Z,63.70
2019-06-20T10:51:21.014Z,63.70
2019-06-20T10:53:51.594Z,63.80
2019-06-20T10:56:27.525Z,63.40
2019-06-20T10:58:57.704Z,63.60
2019-06-20T11:01:30.700Z,63.10
2019-06-20T11:04:00.809Z,63.20
2019-06-20T11:06:31.085Z,63.20
2019-06-20T11:09:01.249Z,63.20
2019-06-20T11:11:33.209Z,63.30
2019-06-20T11:14:05.305Z,63.30
2019-06-20T11:16:36.992Z,63.00
2019-06-20T11:19:08.918Z,62.80
2019-06-20T11:21:41.622Z,62.30
2019-06-20T11:24:11.871Z,62.00
2019-06-20T11:26:43.084Z,62.10
2019-06-20T11:29:13.373Z,61.90
2019-06-20T11:31:47.590Z,61.70
2019-06-20T11:34:17.659Z,62.20
2019-06-20T11:36:48.928Z,62.70
2019-06-20T11:39:19.008Z,61.90
2019-06-20T11:41:49.269Z,61.50
2019-06-20T11:44:19.428Z,60.40
2019-06-20T11:46:51.549Z,60.60
2019-06-20T11:49:21.736Z,61.30
2019-06-20T11:51:52.001Z,61.40
2019-06-20T11:54:22.233Z,61.20
2019-06-20T11:56:52.401Z,61.30
2019-06-20T11:59:22.577Z,61.00
2019-06-20T12:01:52.890Z,61.20
2019-06-20T12:04:23.095Z,61.30
2019-06-20T12:06:55.861Z,61.40
2019-06-20T12:09:26.182Z,61.30
2019-06-20T12:11:56.393Z,60.90
2019-06-20T12:14:26.568Z,61.30
2019-06-20T12:16:56.821Z,61.30
2019-06-20T12:19:26.947Z,60.50
2019-06-20T12:21:57.691Z,60.20
2019-06-20T12:24:28.055Z,60.10
2019-06-20T12:26:58.281Z,60.00
2019-06-20T12:29:28.504Z,60.10
2019-06-20T12:32:00.958Z,60.20
2019-06-20T12:34:30.851Z,60.20
2019-06-20T12:37:02.287Z,59.90
2019-06-20T12:39:32.374Z,59.70
2019-06-20T12:42:02.638Z,59.70
2019-06-20T12:44:32.879Z,59.90
2019-06-20T12:47:03.186Z,59.50
2019-06-20T12:49:33.379Z,59.90
2019-06-20T12:52:05.391Z,59.50
2019-06-20T12:54:35.657Z,59.50
2019-06-20T12:57:07.129Z,60.00
2019-06-20T12:59:38.073Z,60.00
2019-06-20T13:02:09.418Z,60.10
2019-06-20T13:04:41.685Z,59.60
2019-06-20T13:07:11.878Z,59.70
2019-06-20T13:09:44.102Z,60.00
2019-06-20T13:12:14.404Z,60.20
2019-06-20T13:14:45.668Z,59.90
2019-06-20T13:17:16.086Z,59.70
2019-06-20T13:19:48.565Z,59.50
2019-06-20T13:22:18.838Z,59.30
2019-06-20T13:24:49.504Z,58.90
2019-06-20T13:27:19.879Z,59.10
2019-06-20T13:29:50.121Z,57.10
2019-06-20T13:32:20.677Z,58.20
2019-06-20T13:34:50.883Z,57.00
2019-06-20T13:37:21.047Z,57.00
2019-06-20T13:39:51.295Z,57.20
2019-06-20T13:42:21.795Z,57.20
2019-06-20T13:44:52.845Z,56.90
2019-06-20T13:47:23.194Z,56.90
2019-06-20T13:49:55.097Z,56.80
2019-06-20T13:52:25.328Z,56.70
2019-06-20T13:54:55.630Z,57.10
2019-06-20T13:57:26.257Z,56.80
2019-06-20T13:59:58.266Z,57.30
2019-06-20T14:02:28.649Z,57.50
2019-06-20T14:04:58.808Z,57.90
2019-06-20T14:07:32.080Z,58.10
2019-06-20T14:10:02.255Z,58.40
2019-06-20T14:12:32.405Z,58.80
2019-06-20T14:15:08.168Z,59.80
2019-06-20T14:17:41.492Z,59.90
2019-06-20T14:20:14.446Z,59.90
2019-06-20T14:22:45.143Z,58.80
2019-06-20T14:25:15.667Z,59.00
2019-06-20T14:27:46.219Z,59.50
2019-06-20T14:30:18.911Z,59.00
2019-06-20T14:32:49.536Z,59.00
2019-06-20T14:35:21.112Z,58.20
2019-06-20T14:37:52.029Z,58.50
2019-06-20T14:40:22.550Z,57.70
2019-06-20T14:42:54.247Z,57.90
2019-06-20T14:45:24.705Z,56.50
2019-06-20T14:47:55.214Z,56.20
2019-06-20T14:50:25.654Z,56.00
2019-06-20T14:52:56.354Z,55.40
2019-06-20T14:55:26.619Z,55.90
2019-06-20T14:57:56.887Z,56.00
2019-06-20T15:00:27.349Z,56.30
2019-06-20T15:02:58.749Z,56.50
2019-06-20T15:05:29.100Z,56.80
2019-06-20T15:07:59.235Z,57.10
2019-06-20T15:10:29.556Z,57.30
2019-06-20T15:12:59.845Z,57.10
2019-06-20T15:15:31.618Z,57.00
2019-06-20T15:18:02.108Z,57.00
2019-06-20T15:20:32.458Z,57.00
2019-06-20T15:23:02.696Z,57.00
2019-06-20T15:25:32.978Z,57.30
2019-06-20T15:28:03.502Z,57.50
2019-06-20T15:30:35.338Z,57.90
2019-06-20T15:33:10.317Z,57.90
2019-06-20T15:35:37.382Z,57.90
2019-06-20T15:38:09.807Z,57.80
2019-06-20T15:40:41.021Z,57.80
2019-06-20T15:43:14.480Z,57.90
2019-06-20T15:45:44.789Z,58.40
2019-06-20T15:48:14.977Z,58.70
2019-06-20T15:50:45.130Z,58.90
2019-06-20T15:53:15.447Z,58.70
2019-06-20T15:55:48.583Z,58.90
2019-06-20T15:58:18.872Z,58.00
2019-06-20T16:00:49.046Z,57.10
2019-06-20T16:03:19.274Z,57.40
2019-06-20T16:05:49.461Z,57.20
2019-06-20T16:08:19.696Z,57.60
2019-06-20T16:10:52.001Z,57.90
2019-06-20T16:13:22.303Z,57.40
2019-06-20T16:15:52.536Z,57.20
2019-06-20T16:18:22.785Z,57.10
2019-06-20T16:20:53.368Z,57.00
2019-06-20T16:23:23.629Z,57.60
2019-06-20T16:25:53.799Z,57.60
2019-06-20T16:28:24.031Z,57.40
2019-06-20T16:31:07.919Z,57.50
2019-06-20T16:33:26.269Z,57.30
2019-06-20T16:35:56.561Z,56.90
2019-06-20T16:38:26.833Z,57.20
2019-06-20T16:40:57.112Z,57.40
2019-06-20T16:43:27.309Z,56.90
2019-06-20T16:45:58.652Z,56.70
2019-06-20T16:48:29.003Z,56.70
2019-06-20T16:50:59.473Z,56.30
2019-06-20T16:53:29.791Z,56.50
2019-06-20T16:56:00.102Z,55.90
2019-06-20T16:58:30.313Z,56.20
2019-06-20T17:01:00.438Z,56.20
2019-06-20T17:03:41.397Z,56.90
2019-06-20T17:06:02.697Z,56.90
2019-06-20T17:08:32.879Z,56.50
2019-06-20T17:11:03.063Z,56.70
2019-06-20T17:13:35.569Z,57.10
2019-06-20T17:16:05.835Z,56.90
2019-06-20T17:18:36.399Z,56.60
2019-06-20T17:21:06.723Z,55.90
2019-06-20T17:23:37.014Z,55.70
2019-06-20T17:26:07.695Z,55.70
2019-06-20T17:28:37.952Z,56.00
2019-06-20T17:31:08.199Z,55.90
2019-06-20T17:33:38.465Z,55.90
2019-06-20T17:36:17.706Z,56.40
2019-06-20T17:38:43.600Z,56.50
2019-06-20T17:41:13.774Z,56.50
2019-06-20T17:43:43.962Z,56.40
2019-06-20T17:46:14.140Z,56.10
2019-06-20T17:48:44.463Z,56.10
2019-06-20T17:51:17.530Z,55.80
2019-06-20T17:53:50.428Z,56.10
2019-06-20T17:56:20.709Z,56.10
2019-06-20T17:58:51.016Z,56.10
2019-06-20T18:01:21.239Z,55.80
2019-06-20T18:03:51.457Z,56.10
2019-06-20T18:06:21.585Z,56.10
2019-06-20T18:08:51.946Z,56.20
2019-06-20T18:11:22.434Z,56.20
2019-06-20T18:13:54.669Z,56.20
2019-06-20T18:16:25.592Z,56.40
2019-06-20T18:18:55.931Z,56.30
2019-06-20T18:21:27.298Z,56.50
2019-06-20T18:23:57.631Z,56.40
2019-06-20T18:26:27.968Z,56.30
2019-06-20T18:29:00.562Z,56.40
2019-06-20T18:31:30.912Z,56.60
2019-06-20T18:34:01.221Z,56.70
2019-06-20T18:36:33.998Z,56.70
2019-06-20T18:39:05.233Z,56.80
2019-06-20T18:41:36.569Z,56.70
2019-06-20T18:44:08.403Z,56.80
2019-06-20T18:46:38.825Z,56.70
2019-06-20T18:49:09.207Z,57.00
2019-06-20T18:51:40.129Z,57.00
2019-06-20T18:54:11.264Z,57.20
2019-06-20T18:56:41.573Z,57.20
2019-06-20T18:59:11.939Z,57.30
2019-06-20T19:01:42.373Z,57.20
2019-06-20T19:04:12.745Z,57.30
2019-06-20T19:06:43.128Z,57.40
2019-06-20T19:09:13.599Z,57.50
2019-06-20T19:11:44.010Z,57.60
2019-06-20T19:14:14.601Z,57.50
2019-06-20T19:16:46.187Z,57.40
2019-06-20T19:19:16.572Z,57.40
2019-06-20T19:21:48.378Z,57.40
2019-06-20T19:24:18.777Z,57.40
2019-06-20T19:26:49.094Z,57.40
2019-06-20T19:29:19.571Z,57.50
2019-06-20T19:31:49.999Z,57.60
2019-06-20T19:34:20.341Z,57.60
2019-06-20T19:36:50.751Z,57.60
2019-06-20T19:39:22.640Z,57.70
2019-06-20T19:41:55.935Z,57.80
2019-06-20T19:44:26.309Z,57.90
2019-06-20T19:46:56.650Z,57.90
2019-06-20T19:49:27.119Z,57.90
2019-06-20T19:51:57.345Z,58.00
2019-06-20T19:54:27.997Z,58.10
2019-06-20T19:56:58.299Z,58.10
2019-06-20T19:59:30.746Z,58.10
2019-06-20T20:02:02.220Z,58.20
2019-06-20T20:04:32.587Z,58.10
2019-06-20T20:07:04.203Z,58.10
2019-06-20T20:09:34.652Z,58.10
2019-06-20T20:12:05.106Z,58.30
2019-06-20T20:14:35.593Z,58.40
2019-06-20T20:17:05.972Z,58.40
2019-06-20T20:19:36.349Z,58.40
2019-06-20T20:22:07.802Z,58.50
2019-06-20T20:24:38.124Z,58.50
2019-06-20T20:27:08.474Z,58.50
2019-06-20T20:29:38.638Z,58.50
2019-06-20T20:32:10.095Z,58.60
2019-06-20T20:34:40.432Z,58.70
2019-06-20T20:37:10.776Z,58.60
2019-06-20T20:39:43.597Z,58.70
2019-06-20T20:42:17.872Z,58.60
2019-06-20T20:44:49.351Z,58.60
2019-06-20T20:47:19.702Z,58.60
2019-06-20T20:49:49.992Z,58.60
2019-06-20T20:52:20.288Z,58.50
2019-06-20T20:54:50.529Z,58.50
2019-06-20T20:57:20.740Z,58.40
2019-06-20T20:59:50.948Z,58.40
2019-06-20T21:02:21.240Z,58.30
2019-06-20T21:04:51.566Z,58.30
2019-06-20T21:07:24.343Z,58.30
2019-06-20T21:09:54.987Z,58.10
2019-06-20T21:12:25.509Z,58.10
2019-06-20T21:14:55.873Z,58.10
2019-06-20T21:17:26.110Z,58.00
2019-06-20T21:19:56.329Z,58.00
2019-06-20T21:22:28.401Z,57.90
2019-06-20T21:24:58.674Z,57.90
2019-06-20T21:27:28.860Z,58.00
2019-06-20T21:30:00.741Z,57.80
2019-06-20T21:32:31.118Z,57.90
2019-06-20T21:35:04.493Z,57.90
2019-06-20T21:37:35.622Z,57.80
2019-06-20T21:40:06.374Z,57.80
2019-06-20T21:42:36.536Z,57.60
2019-06-20T21:45:07.523Z,57.70
2019-06-20T21:47:37.941Z,57.70
2019-06-20T21:50:08.254Z,57.60
2019-06-20T21:52:38.495Z,57.60
2019-06-20T21:55:09.519Z,57.60
2019-06-20T21:57:39.815Z,57.60
2019-06-20T22:00:15.913Z,57.50
2019-06-20T22:02:47.359Z,57.60
2019-06-20T22:05:17.969Z,57.50
2019-06-20T22:07:48.185Z,57.40
2019-06-20T22:10:18.600Z,57.40
2019-06-20T22:12:48.855Z,57.40
2019-06-20T22:15:19.494Z,57.30
2019-06-20T22:17:49.602Z,57.40
2019-06-20T22:20:19.965Z,57.40
2019-06-20T22:22:50.248Z,57.50
2019-06-20T22:25:21.349Z,57.40
2019-06-20T22:27:51.473Z,57.50
2019-06-20T22:30:56.958Z,57.40
2019-06-20T22:33:32.387Z,57.40
2019-06-20T22:36:02.624Z,57.40
2019-06-20T22:38:32.840Z,57.40
2019-06-20T22:41:03.079Z,57.40
2019-06-20T22:43:33.265Z,57.40
2019-06-20T22:46:03.634Z,57.40
2019-06-20T22:48:36.215Z,57.40
2019-06-20T22:51:08.017Z,57.40
2019-06-20T22:53:38.202Z,57.40
2019-06-20T22:56:08.529Z,57.40
2019-06-20T22:58:38.944Z,57.40
2019-06-20T23:01:09.128Z,57.50
2019-06-20T23:03:40.986Z,57.50
2019-06-20T23:06:11.245Z,57.50
2019-06-20T23:08:41.707Z,57.70
2019-06-20T23:11:13.930Z,57.70
2019-06-20T23:13:44.168Z,57.70
2019-06-20T23:16:14.405Z,57.70
2019-06-20T23:18:44.577Z,57.80
2019-06-20T23:21:14.846Z,57.90
2019-06-20T23:23:44.947Z,57.90
2019-06-20T23:26:15.253Z,57.90
2019-06-20T23:28:47.292Z,58.00
2019-06-20T23:31:17.640Z,58.10
2019-06-20T23:33:47.733Z,58.10
2019-06-20T23:36:17.875Z,58.20
2019-06-20T23:38:49.235Z,58.30
2019-06-20T23:41:19.352Z,58.30
2019-06-20T23:43:49.450Z,58.40
2019-06-20T23:46:19.686Z,58.50
2019-06-20T23:48:49.946Z,58.40
2019-06-20T23:51:25.319Z,58.40
2019-06-20T23:53:53.009Z,58.50
2019-06-20T23:56:23.281Z,58.50
2019-06-20T23:58:53.458Z,58.70
